sensor_id;sensor_type;location;lat;lon;timestamp;P1;durP1;ratioP1;P2;durP2;ratioP2
28802;SDS011;15949;55.656;37.422;2022-07-29T00:04:11;4.40;;;1.80;;
28802;SDS011;15949;55.656;37.422;2022-07-29T00:09:17;5.93;;;2.03;;
28802;SDS011;15949;55.656;37.422;2022-07-29T00:14:23;6.38;;;1.65;;
28802;SDS011;15949;55.656;37.422;2022-07-29T00:19:28;4.18;;;1.90;;
28802;SDS011;15949;55.656;37.422;2022-07-29T00:24:34;4.75;;;2.30;;
28802;SDS011;15949;55.656;37.422;2022-07-29T00:29:39;10.00;;;1.80;;
28802;SDS011;15949;55.656;37.422;2022-07-29T00:34:45;6.50;;;2.03;;
28802;SDS011;15949;55.656;37.422;2022-07-29T00:40:09;5.25;;;1.90;;
28802;SDS011;15949;55.656;37.422;2022-07-29T00:45:16;3.42;;;2.00;;
28802;SDS011;15949;55.656;37.422;2022-07-29T00:50:22;4.00;;;1.92;;
28802;SDS011;15949;55.656;37.422;2022-07-29T00:55:28;6.15;;;2.30;;
28802;SDS011;15949;55.656;37.422;2022-07-29T01:00:34;5.95;;;2.85;;
28802;SDS011;15949;55.656;37.422;2022-07-29T01:05:41;4.40;;;1.70;;
28802;SDS011;15949;55.656;37.422;2022-07-29T01:10:48;3.87;;;2.00;;
28802;SDS011;15949;55.656;37.422;2022-07-29T01:15:56;6.72;;;2.00;;
28802;SDS011;15949;55.656;37.422;2022-07-29T01:26:52;4.32;;;2.20;;
28802;SDS011;15949;55.656;37.422;2022-07-29T01:32:14;4.10;;;2.08;;
28802;SDS011;15949;55.656;37.422;2022-07-29T01:37:24;8.40;;;2.38;;
28802;SDS011;15949;55.656;37.422;2022-07-29T01:42:39;6.97;;;2.30;;
28802;SDS011;15949;55.656;37.422;2022-07-29T01:48:36;7.75;;;2.33;;
28802;SDS011;15949;55.656;37.422;2022-07-29T01:53:31;6.95;;;2.20;;
28802;SDS011;15949;55.656;37.422;2022-07-29T01:58:41;8.35;;;2.47;;
28802;SDS011;15949;55.656;37.422;2022-07-29T02:03:48;4.95;;;2.40;;
28802;SDS011;15949;55.656;37.422;2022-07-29T02:08:55;8.57;;;2.67;;
28802;SDS011;15949;55.656;37.422;2022-07-29T02:14:03;4.40;;;2.60;;
28802;SDS011;15949;55.656;37.422;2022-07-29T02:19:12;6.47;;;2.77;;
28802;SDS011;15949;55.656;37.422;2022-07-29T02:24:20;4.95;;;2.70;;
28802;SDS011;15949;55.656;37.422;2022-07-29T02:29:28;8.13;;;2.40;;
28802;SDS011;15949;55.656;37.422;2022-07-29T02:34:37;4.40;;;2.00;;
28802;SDS011;15949;55.656;37.422;2022-07-29T02:39:43;6.88;;;2.42;;
28802;SDS011;15949;55.656;37.422;2022-07-29T02:44:50;6.70;;;2.90;;
28802;SDS011;15949;55.656;37.422;2022-07-29T03:00:37;7.13;;;2.72;;
28802;SDS011;15949;55.656;37.422;2022-07-29T03:05:44;7.35;;;2.53;;
28802;SDS011;15949;55.656;37.422;2022-07-29T03:10:49;5.38;;;2.45;;
28802;SDS011;15949;55.656;37.422;2022-07-29T03:15:56;6.55;;;2.13;;
28802;SDS011;15949;55.656;37.422;2022-07-29T03:21:03;3.83;;;2.25;;
28802;SDS011;15949;55.656;37.422;2022-07-29T03:26:09;4.97;;;2.00;;
28802;SDS011;15949;55.656;37.422;2022-07-29T03:31:14;10.65;;;2.20;;
28802;SDS011;15949;55.656;37.422;2022-07-29T03:36:20;3.92;;;2.20;;
28802;SDS011;15949;55.656;37.422;2022-07-29T03:41:25;4.82;;;2.08;;
28802;SDS011;15949;55.656;37.422;2022-07-29T03:46:32;5.00;;;2.00;;
28802;SDS011;15949;55.656;37.422;2022-07-29T03:51:40;4.07;;;1.93;;
28802;SDS011;15949;55.656;37.422;2022-07-29T03:56:46;4.90;;;2.00;;
28802;SDS011;15949;55.656;37.422;2022-07-29T04:01:54;3.72;;;1.90;;
28802;SDS011;15949;55.656;37.422;2022-07-29T04:07:01;9.00;;;2.08;;
28802;SDS011;15949;55.656;37.422;2022-07-29T04:12:08;6.13;;;1.85;;
28802;SDS011;15949;55.656;37.422;2022-07-29T04:17:13;6.90;;;1.98;;
28802;SDS011;15949;55.656;37.422;2022-07-29T04:22:19;7.70;;;2.10;;
28802;SDS011;15949;55.656;37.422;2022-07-29T04:27:24;8.07;;;1.60;;
28802;SDS011;15949;55.656;37.422;2022-07-29T04:32:30;4.80;;;1.50;;
28802;SDS011;15949;55.656;37.422;2022-07-29T04:37:36;3.47;;;1.38;;
28802;SDS011;15949;55.656;37.422;2022-07-29T04:42:41;6.97;;;1.67;;
28802;SDS011;15949;55.656;37.422;2022-07-29T04:47:47;5.03;;;1.70;;
28802;SDS011;15949;55.656;37.422;2022-07-29T04:52:52;2.22;;;1.50;;
28802;SDS011;15949;55.656;37.422;2022-07-29T04:57:58;7.30;;;1.65;;
28802;SDS011;15949;55.656;37.422;2022-07-29T05:03:03;4.10;;;1.50;;
28802;SDS011;15949;55.656;37.422;2022-07-29T05:08:09;6.05;;;1.45;;
28802;SDS011;15949;55.656;37.422;2022-07-29T05:13:15;4.53;;;1.48;;
28802;SDS011;15949;55.656;37.422;2022-07-29T05:18:21;3.92;;;1.20;;
28802;SDS011;15949;55.656;37.422;2022-07-29T05:23:26;4.40;;;1.70;;
28802;SDS011;15949;55.656;37.422;2022-07-29T05:28:35;5.15;;;1.35;;
28802;SDS011;15949;55.656;37.422;2022-07-29T05:33:40;3.97;;;1.40;;
28802;SDS011;15949;55.656;37.422;2022-07-29T05:38:46;2.30;;;1.30;;
28802;SDS011;15949;55.656;37.422;2022-07-29T05:43:52;5.47;;;1.40;;
28802;SDS011;15949;55.656;37.422;2022-07-29T05:48:57;3.13;;;1.30;;
28802;SDS011;15949;55.656;37.422;2022-07-29T05:54:03;5.03;;;1.30;;
28802;SDS011;15949;55.656;37.422;2022-07-29T05:59:08;7.10;;;1.20;;
28802;SDS011;15949;55.656;37.422;2022-07-29T06:04:14;4.38;;;1.38;;
28802;SDS011;15949;55.656;37.422;2022-07-29T06:09:19;4.28;;;1.10;;
28802;SDS011;15949;55.656;37.422;2022-07-29T06:14:25;4.50;;;1.30;;
28802;SDS011;15949;55.656;37.422;2022-07-29T06:19:33;3.65;;;1.50;;
28802;SDS011;15949;55.656;37.422;2022-07-29T06:24:40;5.13;;;1.33;;
28802;SDS011;15949;55.656;37.422;2022-07-29T06:29:48;3.97;;;1.02;;
28802;SDS011;15949;55.656;37.422;2022-07-29T06:34:54;4.97;;;1.20;;
28802;SDS011;15949;55.656;37.422;2022-07-29T06:40:00;4.22;;;1.30;;
28802;SDS011;15949;55.656;37.422;2022-07-29T06:45:24;2.90;;;1.20;;
28802;SDS011;15949;55.656;37.422;2022-07-29T06:50:29;6.30;;;1.23;;
28802;SDS011;15949;55.656;37.422;2022-07-29T06:55:35;6.32;;;1.17;;
28802;SDS011;15949;55.656;37.422;2022-07-29T07:00:42;6.78;;;1.08;;
28802;SDS011;15949;55.656;37.422;2022-07-29T07:05:47;6.30;;;1.20;;
28802;SDS011;15949;55.656;37.422;2022-07-29T07:10:53;4.30;;;1.10;;
28802;SDS011;15949;55.656;37.422;2022-07-29T07:16:03;5.40;;;1.27;;
28802;SDS011;15949;55.656;37.422;2022-07-29T07:21:09;5.38;;;1.55;;
28802;SDS011;15949;55.656;37.422;2022-07-29T07:26:14;5.88;;;1.30;;
28802;SDS011;15949;55.656;37.422;2022-07-29T07:31:20;4.45;;;1.10;;
28802;SDS011;15949;55.656;37.422;2022-07-29T07:36:26;3.72;;;1.35;;
28802;SDS011;15949;55.656;37.422;2022-07-29T07:41:31;1.80;;;1.02;;
28802;SDS011;15949;55.656;37.422;2022-07-29T07:46:37;1.95;;;1.02;;
28802;SDS011;15949;55.656;37.422;2022-07-29T07:51:43;12.18;;;1.20;;
28802;SDS011;15949;55.656;37.422;2022-07-29T07:56:48;4.47;;;1.23;;
28802;SDS011;15949;55.656;37.422;2022-07-29T08:01:54;6.65;;;1.08;;
28802;SDS011;15949;55.656;37.422;2022-07-29T08:07:00;2.67;;;1.00;;
28802;SDS011;15949;55.656;37.422;2022-07-29T08:12:07;2.67;;;1.00;;
28802;SDS011;15949;55.656;37.422;2022-07-29T08:17:12;6.28;;;0.90;;
28802;SDS011;15949;55.656;37.422;2022-07-29T08:22:18;2.58;;;1.00;;
28802;SDS011;15949;55.656;37.422;2022-07-29T08:27:23;2.53;;;1.00;;
28802;SDS011;15949;55.656;37.422;2022-07-29T08:32:31;4.97;;;1.00;;
28802;SDS011;15949;55.656;37.422;2022-07-29T08:37:37;3.65;;;1.25;;
28802;SDS011;15949;55.656;37.422;2022-07-29T08:42:42;2.47;;;1.30;;
28802;SDS011;15949;55.656;37.422;2022-07-29T08:47:48;8.82;;;1.30;;
28802;SDS011;15949;55.656;37.422;2022-07-29T08:52:54;3.00;;;0.77;;
28802;SDS011;15949;55.656;37.422;2022-07-29T08:58:00;1.98;;;0.70;;
28802;SDS011;15949;55.656;37.422;2022-07-29T09:03:06;1.75;;;0.70;;
28802;SDS011;15949;55.656;37.422;2022-07-29T09:08:13;9.93;;;1.10;;
28802;SDS011;15949;55.656;37.422;2022-07-29T09:13:20;2.20;;;0.93;;
28802;SDS011;15949;55.656;37.422;2022-07-29T09:18:33;1.83;;;1.10;;
28802;SDS011;15949;55.656;37.422;2022-07-29T09:23:40;3.30;;;0.98;;
28802;SDS011;15949;55.656;37.422;2022-07-29T09:28:47;12.90;;;1.83;;
28802;SDS011;15949;55.656;37.422;2022-07-29T09:33:53;1.38;;;0.70;;
28802;SDS011;15949;55.656;37.422;2022-07-29T09:39:04;3.17;;;0.88;;
28802;SDS011;15949;55.656;37.422;2022-07-29T09:44:09;2.22;;;0.70;;
28802;SDS011;15949;55.656;37.422;2022-07-29T09:49:15;2.85;;;0.90;;
28802;SDS011;15949;55.656;37.422;2022-07-29T09:54:22;1.98;;;0.80;;
28802;SDS011;15949;55.656;37.422;2022-07-29T09:59:28;1.33;;;0.88;;
28802;SDS011;15949;55.656;37.422;2022-07-29T10:04:40;1.90;;;0.80;;
28802;SDS011;15949;55.656;37.422;2022-07-29T10:09:56;2.08;;;0.70;;
28802;SDS011;15949;55.656;37.422;2022-07-29T10:15:02;4.30;;;1.00;;
28802;SDS011;15949;55.656;37.422;2022-07-29T10:20:08;2.28;;;0.80;;
28802;SDS011;15949;55.656;37.422;2022-07-29T10:25:15;2.92;;;0.90;;
28802;SDS011;15949;55.656;37.422;2022-07-29T10:30:22;3.05;;;0.80;;
28802;SDS011;15949;55.656;37.422;2022-07-29T10:46:34;2.58;;;0.80;;
28802;SDS011;15949;55.656;37.422;2022-07-29T10:56:55;2.58;;;0.85;;
28802;SDS011;15949;55.656;37.422;2022-07-29T11:02:01;2.47;;;1.00;;
28802;SDS011;15949;55.656;37.422;2022-07-29T11:07:06;4.00;;;0.90;;
28802;SDS011;15949;55.656;37.422;2022-07-29T11:22:58;2.28;;;0.90;;
28802;SDS011;15949;55.656;37.422;2022-07-29T11:28:08;4.15;;;1.08;;
28802;SDS011;15949;55.656;37.422;2022-07-29T11:33:31;3.17;;;0.95;;
28802;SDS011;15949;55.656;37.422;2022-07-29T11:38:38;6.45;;;0.90;;
28802;SDS011;15949;55.656;37.422;2022-07-29T11:43:51;4.38;;;0.90;;
28802;SDS011;15949;55.656;37.422;2022-07-29T11:49:04;3.60;;;0.85;;
28802;SDS011;15949;55.656;37.422;2022-07-29T11:54:10;2.15;;;0.82;;
28802;SDS011;15949;55.656;37.422;2022-07-29T11:59:20;3.50;;;0.80;;
28802;SDS011;15949;55.656;37.422;2022-07-29T12:04:26;4.85;;;1.00;;
28802;SDS011;15949;55.656;37.422;2022-07-29T12:09:32;2.75;;;0.90;;
28802;SDS011;15949;55.656;37.422;2022-07-29T12:14:37;2.72;;;0.90;;
28802;SDS011;15949;55.656;37.422;2022-07-29T12:19:49;2.50;;;1.08;;
28802;SDS011;15949;55.656;37.422;2022-07-29T12:24:55;3.97;;;0.90;;
28802;SDS011;15949;55.656;37.422;2022-07-29T12:30:06;4.15;;;0.90;;
28802;SDS011;15949;55.656;37.422;2022-07-29T12:35:18;3.25;;;1.10;;
28802;SDS011;15949;55.656;37.422;2022-07-29T12:40:24;1.33;;;0.80;;
28802;SDS011;15949;55.656;37.422;2022-07-29T12:45:31;5.95;;;2.15;;
28802;SDS011;15949;55.656;37.422;2022-07-29T12:50:37;14.00;;;9.07;;
28802;SDS011;15949;55.656;37.422;2022-07-29T12:56:00;16.75;;;8.48;;
28802;SDS011;15949;55.656;37.422;2022-07-29T13:11:41;9.85;;;2.33;;
28802;SDS011;15949;55.656;37.422;2022-07-29T13:17:31;3.05;;;1.33;;
28802;SDS011;15949;55.656;37.422;2022-07-29T13:22:22;4.13;;;1.17;;
28802;SDS011;15949;55.656;37.422;2022-07-29T13:27:30;3.50;;;0.90;;
28802;SDS011;15949;55.656;37.422;2022-07-29T13:32:41;4.25;;;1.10;;
28802;SDS011;15949;55.656;37.422;2022-07-29T13:37:46;4.93;;;1.08;;
28802;SDS011;15949;55.656;37.422;2022-07-29T13:42:52;3.45;;;1.30;;
28802;SDS011;15949;55.656;37.422;2022-07-29T13:47:58;1.73;;;0.98;;
28802;SDS011;15949;55.656;37.422;2022-07-29T13:53:03;2.90;;;1.00;;
28802;SDS011;15949;55.656;37.422;2022-07-29T13:58:09;1.52;;;1.00;;
28802;SDS011;15949;55.656;37.422;2022-07-29T14:03:14;3.55;;;1.40;;
28802;SDS011;15949;55.656;37.422;2022-07-29T14:08:20;2.72;;;0.98;;
28802;SDS011;15949;55.656;37.422;2022-07-29T14:13:26;3.50;;;0.90;;
28802;SDS011;15949;55.656;37.422;2022-07-29T14:18:31;0.93;;;0.60;;
28802;SDS011;15949;55.656;37.422;2022-07-29T14:23:37;4.28;;;0.90;;
28802;SDS011;15949;55.656;37.422;2022-07-29T14:28:43;3.53;;;1.05;;
28802;SDS011;15949;55.656;37.422;2022-07-29T14:33:49;4.47;;;1.17;;
28802;SDS011;15949;55.656;37.422;2022-07-29T14:38:55;4.38;;;1.10;;
28802;SDS011;15949;55.656;37.422;2022-07-29T14:44:00;1.65;;;0.93;;
28802;SDS011;15949;55.656;37.422;2022-07-29T14:49:06;3.38;;;0.95;;
28802;SDS011;15949;55.656;37.422;2022-07-29T14:54:14;2.63;;;1.10;;
28802;SDS011;15949;55.656;37.422;2022-07-29T14:59:19;2.85;;;1.10;;
28802;SDS011;15949;55.656;37.422;2022-07-29T15:04:25;1.95;;;1.08;;
28802;SDS011;15949;55.656;37.422;2022-07-29T15:09:30;3.65;;;1.30;;
28802;SDS011;15949;55.656;37.422;2022-07-29T15:14:36;3.65;;;1.20;;
28802;SDS011;15949;55.656;37.422;2022-07-29T15:19:42;5.72;;;1.20;;
28802;SDS011;15949;55.656;37.422;2022-07-29T15:24:47;6.00;;;1.23;;
28802;SDS011;15949;55.656;37.422;2022-07-29T15:29:53;2.63;;;1.20;;
28802;SDS011;15949;55.656;37.422;2022-07-29T15:34:58;3.42;;;1.40;;
28802;SDS011;15949;55.656;37.422;2022-07-29T15:40:04;4.53;;;1.50;;
28802;SDS011;15949;55.656;37.422;2022-07-29T15:45:10;7.13;;;2.00;;
28802;SDS011;15949;55.656;37.422;2022-07-29T15:50:16;11.70;;;1.60;;
28802;SDS011;15949;55.656;37.422;2022-07-29T15:55:22;12.77;;;1.38;;
28802;SDS011;15949;55.656;37.422;2022-07-29T16:00:28;8.18;;;1.50;;
28802;SDS011;15949;55.656;37.422;2022-07-29T16:05:34;10.50;;;2.63;;
28802;SDS011;15949;55.656;37.422;2022-07-29T16:10:39;10.27;;;1.60;;
28802;SDS011;15949;55.656;37.422;2022-07-29T16:15:45;13.60;;;1.80;;
28802;SDS011;15949;55.656;37.422;2022-07-29T16:20:51;13.43;;;1.60;;
28802;SDS011;15949;55.656;37.422;2022-07-29T16:25:57;4.05;;;1.55;;
28802;SDS011;15949;55.656;37.422;2022-07-29T16:31:03;8.63;;;1.58;;
28802;SDS011;15949;55.656;37.422;2022-07-29T16:36:08;8.18;;;1.70;;
28802;SDS011;15949;55.656;37.422;2022-07-29T16:41:14;8.77;;;1.70;;
28802;SDS011;15949;55.656;37.422;2022-07-29T16:46:20;8.35;;;1.58;;
28802;SDS011;15949;55.656;37.422;2022-07-29T16:51:25;3.63;;;1.77;;
28802;SDS011;15949;55.656;37.422;2022-07-29T16:56:31;3.92;;;1.63;;
28802;SDS011;15949;55.656;37.422;2022-07-29T17:01:37;5.35;;;2.10;;
28802;SDS011;15949;55.656;37.422;2022-07-29T17:06:42;3.15;;;1.30;;
28802;SDS011;15949;55.656;37.422;2022-07-29T17:11:48;9.27;;;1.85;;
28802;SDS011;15949;55.656;37.422;2022-07-29T17:16:58;3.63;;;1.80;;
28802;SDS011;15949;55.656;37.422;2022-07-29T17:22:04;4.53;;;1.58;;
28802;SDS011;15949;55.656;37.422;2022-07-29T17:27:11;5.63;;;1.50;;
28802;SDS011;15949;55.656;37.422;2022-07-29T17:32:16;4.88;;;1.60;;
28802;SDS011;15949;55.656;37.422;2022-07-29T17:37:22;3.20;;;1.38;;
28802;SDS011;15949;55.656;37.422;2022-07-29T17:42:28;5.55;;;1.35;;
28802;SDS011;15949;55.656;37.422;2022-07-29T17:47:33;2.85;;;1.33;;
28802;SDS011;15949;55.656;37.422;2022-07-29T17:52:39;2.75;;;1.50;;
28802;SDS011;15949;55.656;37.422;2022-07-29T17:57:45;4.65;;;1.70;;
28802;SDS011;15949;55.656;37.422;2022-07-29T18:02:51;5.20;;;1.83;;
28802;SDS011;15949;55.656;37.422;2022-07-29T18:07:57;3.55;;;2.20;;
28802;SDS011;15949;55.656;37.422;2022-07-29T18:13:03;8.50;;;2.60;;
28802;SDS011;15949;55.656;37.422;2022-07-29T18:18:08;7.68;;;2.60;;
28802;SDS011;15949;55.656;37.422;2022-07-29T18:23:16;6.90;;;2.67;;
28802;SDS011;15949;55.656;37.422;2022-07-29T18:28:22;6.72;;;2.50;;
28802;SDS011;15949;55.656;37.422;2022-07-29T18:33:28;4.95;;;2.70;;
28802;SDS011;15949;55.656;37.422;2022-07-29T18:38:34;9.90;;;2.63;;
28802;SDS011;15949;55.656;37.422;2022-07-29T18:43:39;6.50;;;2.38;;
28802;SDS011;15949;55.656;37.422;2022-07-29T18:48:45;5.95;;;2.60;;
28802;SDS011;15949;55.656;37.422;2022-07-29T18:53:51;5.13;;;3.00;;
28802;SDS011;15949;55.656;37.422;2022-07-29T18:58:56;14.05;;;3.83;;
28802;SDS011;15949;55.656;37.422;2022-07-29T19:04:03;17.15;;;4.18;;
28802;SDS011;15949;55.656;37.422;2022-07-29T19:09:09;12.10;;;3.65;;
28802;SDS011;15949;55.656;37.422;2022-07-29T19:14:14;7.80;;;3.03;;
28802;SDS011;15949;55.656;37.422;2022-07-29T19:19:20;11.15;;;3.00;;
28802;SDS011;15949;55.656;37.422;2022-07-29T19:24:26;8.57;;;2.70;;
28802;SDS011;15949;55.656;37.422;2022-07-29T19:29:32;9.68;;;2.65;;
28802;SDS011;15949;55.656;37.422;2022-07-29T19:34:39;12.63;;;2.55;;
28802;SDS011;15949;55.656;37.422;2022-07-29T19:39:47;5.82;;;2.53;;
28802;SDS011;15949;55.656;37.422;2022-07-29T19:44:53;6.38;;;2.95;;
28802;SDS011;15949;55.656;37.422;2022-07-29T19:49:58;8.15;;;3.05;;
28802;SDS011;15949;55.656;37.422;2022-07-29T19:55:04;7.82;;;2.90;;
28802;SDS011;15949;55.656;37.422;2022-07-29T20:00:13;6.20;;;2.70;;
28802;SDS011;15949;55.656;37.422;2022-07-29T20:05:19;5.00;;;2.78;;
28802;SDS011;15949;55.656;37.422;2022-07-29T20:10:25;5.00;;;2.70;;
28802;SDS011;15949;55.656;37.422;2022-07-29T20:15:30;9.80;;;3.13;;
28802;SDS011;15949;55.656;37.422;2022-07-29T20:20:36;7.70;;;2.75;;
28802;SDS011;15949;55.656;37.422;2022-07-29T20:25:42;11.38;;;3.00;;
28802;SDS011;15949;55.656;37.422;2022-07-29T20:30:48;8.95;;;2.95;;
28802;SDS011;15949;55.656;37.422;2022-07-29T20:35:54;7.93;;;2.92;;
28802;SDS011;15949;55.656;37.422;2022-07-29T20:40:59;5.63;;;2.72;;
28802;SDS011;15949;55.656;37.422;2022-07-29T20:46:05;11.93;;;3.03;;
28802;SDS011;15949;55.656;37.422;2022-07-29T20:51:10;7.30;;;2.95;;
28802;SDS011;15949;55.656;37.422;2022-07-29T20:56:16;5.70;;;3.17;;
28802;SDS011;15949;55.656;37.422;2022-07-29T21:01:21;6.07;;;2.88;;
28802;SDS011;15949;55.656;37.422;2022-07-29T21:06:27;9.75;;;2.72;;
28802;SDS011;15949;55.656;37.422;2022-07-29T21:11:33;4.00;;;2.25;;
28802;SDS011;15949;55.656;37.422;2022-07-29T21:16:42;5.63;;;2.08;;
28802;SDS011;15949;55.656;37.422;2022-07-29T21:21:48;8.07;;;2.70;;
28802;SDS011;15949;55.656;37.422;2022-07-29T21:26:54;6.05;;;2.75;;
28802;SDS011;15949;55.656;37.422;2022-07-29T21:32:19;5.82;;;2.38;;
28802;SDS011;15949;55.656;37.422;2022-07-29T21:37:25;6.60;;;2.00;;
28802;SDS011;15949;55.656;37.422;2022-07-29T21:42:31;4.50;;;1.77;;
28802;SDS011;15949;55.656;37.422;2022-07-29T21:47:37;3.72;;;2.08;;
28802;SDS011;15949;55.656;37.422;2022-07-29T21:52:43;3.17;;;1.75;;
28802;SDS011;15949;55.656;37.422;2022-07-29T21:57:49;4.22;;;1.83;;
28802;SDS011;15949;55.656;37.422;2022-07-29T22:02:54;3.10;;;2.10;;
28802;SDS011;15949;55.656;37.422;2022-07-29T22:08:00;5.22;;;2.33;;
28802;SDS011;15949;55.656;37.422;2022-07-29T22:13:06;6.25;;;2.30;;
28802;SDS011;15949;55.656;37.422;2022-07-29T22:18:11;8.13;;;2.30;;
28802;SDS011;15949;55.656;37.422;2022-07-29T22:23:17;4.28;;;2.50;;
28802;SDS011;15949;55.656;37.422;2022-07-29T22:28:23;4.57;;;2.55;;
28802;SDS011;15949;55.656;37.422;2022-07-29T22:33:28;6.07;;;2.53;;
28802;SDS011;15949;55.656;37.422;2022-07-29T22:38:34;4.88;;;2.13;;
28802;SDS011;15949;55.656;37.422;2022-07-29T22:43:40;4.28;;;2.40;;
28802;SDS011;15949;55.656;37.422;2022-07-29T22:48:45;4.70;;;2.30;;
28802;SDS011;15949;55.656;37.422;2022-07-29T22:53:51;8.85;;;2.30;;
28802;SDS011;15949;55.656;37.422;2022-07-29T22:58:57;5.45;;;2.30;;
28802;SDS011;15949;55.656;37.422;2022-07-29T23:04:02;4.03;;;2.13;;
28802;SDS011;15949;55.656;37.422;2022-07-29T23:09:08;3.50;;;2.50;;
28802;SDS011;15949;55.656;37.422;2022-07-29T23:14:14;5.03;;;2.28;;
28802;SDS011;15949;55.656;37.422;2022-07-29T23:19:19;4.97;;;2.50;;
28802;SDS011;15949;55.656;37.422;2022-07-29T23:24:25;5.95;;;2.15;;
28802;SDS011;15949;55.656;37.422;2022-07-29T23:29:30;10.23;;;2.30;;
28802;SDS011;15949;55.656;37.422;2022-07-29T23:34:37;3.97;;;2.33;;
28802;SDS011;15949;55.656;37.422;2022-07-29T23:39:43;3.33;;;2.30;;
28802;SDS011;15949;55.656;37.422;2022-07-29T23:44:48;4.38;;;2.30;;
28802;SDS011;15949;55.656;37.422;2022-07-29T23:49:54;3.65;;;1.95;;
28802;SDS011;15949;55.656;37.422;2022-07-29T23:55:00;5.10;;;2.05;;
